Weather reports worldwide

Advertisment
Naimakka, Sweden (2055): temperature & dewpoint: 08.10.2019 14:00:00 - 14.10.2019 14:00:00 (CEST)Naimakka, Sweden (2055): wind speed & gusts: 08.10.2019 14:00:00 - 14.10.2019 14:00:00 (CEST)Naimakka, Sweden (2055): wind direction: 08.10.2019 14:00:00 - 14.10.2019 14:00:00 (CEST)Naimakka, Sweden (2055): visibility: 08.10.2019 14:00:00 - 14.10.2019 14:00:00 (CEST)Naimakka, Sweden (2055): precipitation: 08.10.2019 14:00:00 - 14.10.2019 14:00:00 (CEST)
Date & Time tt [°C] td [°C] ff [km/h] ff [kn] fx [km/h] fx [kn] dd vv [km] rr [mm]
14.10.2019 14:00:00 - - - - - - - - -
14.10.2019 13:00:00 -0,8 -6,2 10 5 22 12 NNW 0,1 0,0
14.10.2019 12:00:00 -0,9 -6,3 9 5 14 8 NNW 50 0,0
14.10.2019 11:00:00 -1,0 -6,2 8 5 14 8 NNW 50 0,0
14.10.2019 10:00:00 -2,0 -6,7 6 4 10 6 NNW 50 0,0
14.10.2019 09:00:00 -3,3 -6,6 6 3 9 5 NNW 50 0,0
14.10.2019 08:00:00 -2,3 -6,7 5 3 14 7 NNW 50 0,0
14.10.2019 07:00:00 -2,4 -5,4 5 3 10 5 NNW 50 0,0
14.10.2019 06:00:00 -3,1 -5,1 6 3 10 5 W 50 0,0
14.10.2019 05:00:00 -3,0 -5,3 7 4 10 6 W 50 0,0
14.10.2019 04:00:00 -3,1 -5,4 7 4 12 7 W 50 0,0
14.10.2019 03:00:00 -3,6 -5,8 8 4 13 7 W 50 0,0
14.10.2019 02:00:00 -3,9 -5,9 6 3 14 7 W 50 0,0
14.10.2019 01:00:00 -4,3 -6,1 8 5 11 6 W 50 0,0
14.10.2019 00:00:00 -5,0 -6,7 5 3 13 7 WSW 50 0,0
13.10.2019 23:00:00 -5,3 -7,3 7 4 11 6 W 50 0,0
13.10.2019 22:00:00 -7,3 -8,2 5 3 10 5 W 50 0,0
13.10.2019 21:00:00 -7,6 -8,7 6 4 9 5 W 50 0,0
13.10.2019 20:00:00 -5,1 -6,9 4 2 10 5 W 50 0,0
13.10.2019 19:00:00 -2,8 -6,8 6 3 17 9 NNW 50 0,0
13.10.2019 18:00:00 -1,3 -5,3 8 4 19 11 NNW 50 0,0
13.10.2019 17:00:00 -0,9 -5,1 7 4 19 10 N 50 0,0
13.10.2019 16:00:00 -0,8 -4,3 10 5 16 9 N 50 0,0
13.10.2019 15:00:00 -0,8 -4,3 5 3 21 11 ENE 50 0,0
13.10.2019 14:00:00 -0,8 -3,5 4 2 22 12 N 9 0,0
13.10.2019 13:00:00 -0,7 -4,1 4 2 15 8 S 36 0,0
13.10.2019 12:00:00 -0,7 -3,7 7 4 18 10 NE 12 0,0
13.10.2019 11:00:00 -0,5 -3,5 5 3 16 9 S 23 0,0
13.10.2019 10:00:00 -0,7 -3,6 3 2 19 11 ENE 27 0,0
13.10.2019 09:00:00 -0,6 -2,8 8 4 19 10 ENE 50 0,0
13.10.2019 08:00:00 -1,1 -3,3 5 3 12 7 NE 28 0,0
13.10.2019 07:00:00 -1,4 -3,3 2 1 8 4 S 16 0,0
13.10.2019 06:00:00 -1,7 -3,3 4 2 10 5 NW 5 0,0
13.10.2019 05:00:00 -1,8 -4,1 3 1 20 11 SE 50 0,0
13.10.2019 04:00:00 -1,5 -4,0 14 7 23 13 ENE 50 0,0
13.10.2019 03:00:00 -1,9 -4,1 5 3 12 6 NE 50 0,0
13.10.2019 02:00:00 -2,1 -4,3 3 2 14 7 ENE 38 0,0
13.10.2019 01:00:00 -2,2 -4,4 6 3 15 8 NE 33 0,0
13.10.2019 00:00:00 -2,3 -4,5 9 5 16 9 NE 38 0,0
12.10.2019 23:00:00 -2,2 -4,5 8 4 13 7 ENE 50 0,0
12.10.2019 22:00:00 -2,3 -4,3 4 2 11 6 E 34 0,0
12.10.2019 21:00:00 -2,8 -4,1 5 3 23 13 ESE 12 0,0
12.10.2019 20:00:00 -2,3 -4,6 7 4 18 10 ENE 25 0,0
12.10.2019 19:00:00 -2,5 -4,7 6 3 18 10 E 22 0,0
12.10.2019 18:00:00 -2,7 -4,7 9 5 19 10 E 18 0,0
12.10.2019 17:00:00 -3,6 -4,6 0 0 17 9 N 1,7 0,0
12.10.2019 16:00:00 -3,2 -4,6 13 7 21 11 ENE 3,3 0,0
12.10.2019 15:00:00 -1,1 -5,1 8 4 19 10 ENE 50 0,0
12.10.2019 14:00:00 -1,5 -5,7 7 4 20 11 E 50 0,0
12.10.2019 13:00:00 -1,9 -5,6 12 7 18 10 ENE 50 0,0
12.10.2019 12:00:00 -2,1 -5,4 10 6 20 11 ENE 50 0,0
12.10.2019 11:00:00 -2,5 -5,0 9 5 20 11 ENE 17 0,0
12.10.2019 10:00:00 -2,1 -4,6 9 5 16 9 E 17 0,0
12.10.2019 09:00:00 -2,3 -5,0 9 5 15 8 E 50 0,0
12.10.2019 08:00:00 -2,6 -4,2 7 4 17 9 NE 35 0,0
12.10.2019 07:00:00 -2,7 -5,0 8 4 14 8 NNE 44 0,0
12.10.2019 06:00:00 -2,6 -5,6 4 2 8 5 ENE 50 0,0
12.10.2019 05:00:00 -2,5 -5,1 4 2 9 5 WSW 50 0,0
12.10.2019 04:00:00 -2,4 -4,9 4 2 9 5 W 50 0,0
12.10.2019 03:00:00 -2,4 -4,9 3 2 6 3 WSW 50 0,0
12.10.2019 02:00:00 -1,8 -5,1 0 0 8 5 N 50 0,0
12.10.2019 01:00:00 -2,3 -3,9 5 3 6 3 WSW 50 0,0
12.10.2019 00:00:00 -2,2 -4,1 0 0 5 3 N 30 0,0
11.10.2019 23:00:00 -2,1 -3,8 4 2 8 4 W 50 0,0
11.10.2019 22:00:00 -2,1 -4,0 6 4 9 5 W 50 0,0
11.10.2019 21:00:00 -2,0 -4,0 5 3 8 4 W 50 0,0
11.10.2019 20:00:00 -1,9 -4,2 5 3 10 6 WNW 50 0,0
11.10.2019 19:00:00 -1,6 -4,3 8 4 10 5 W 50 0,0
11.10.2019 18:00:00 -1,6 -4,1 8 4 12 7 W 50 0,0
11.10.2019 17:00:00 -1,6 -3,3 6 3 10 6 W 47 0,0
11.10.2019 16:00:00 -1,5 -3,4 7 4 11 6 W 50 0,0
11.10.2019 15:00:00 -1,5 -3,4 8 5 13 7 WNW 50 0,0
11.10.2019 14:00:00 -1,8 -3,4 8 4 14 7 W 50 0,0
11.10.2019 13:00:00 -2,3 -3,9 10 5 14 8 W 50 0,0
11.10.2019 12:00:00 -2,7 -4,3 8 5 18 10 WNW 50 0,0
11.10.2019 11:00:00 -3,2 -4,5 13 7 17 9 W 50 0,0
11.10.2019 10:00:00 -3,6 -5,0 11 6 17 9 W 50 0,0
11.10.2019 09:00:00 -4,1 -5,3 13 7 16 9 WNW 50 0,0
11.10.2019 08:00:00 -4,6 -5,3 13 7 17 9 W 50 0,0
11.10.2019 07:00:00 -5,0 -5,8 11 6 16 8 W 50 0,0
11.10.2019 06:00:00 -5,2 -6,2 11 6 16 9 WNW 50 0,0
11.10.2019 05:00:00 -6,1 -7,2 12 7 17 9 W 50 0,0
11.10.2019 04:00:00 -7,5 -8,7 14 8 19 10 W 50 0,0
11.10.2019 03:00:00 -7,8 -8,9 16 9 19 10 W 50 0,0
11.10.2019 02:00:00 -7,6 -8,7 11 6 17 9 W 50 0,0
11.10.2019 01:00:00 -7,9 -8,8 7 4 11 6 W 50 0,0
11.10.2019 00:00:00 -7,1 -8,2 10 6 14 8 WNW 50 0,0
10.10.2019 23:00:00 -7,0 -7,8 7 4 11 6 W 50 0,0
10.10.2019 22:00:00 -6,1 -7,0 10 5 13 7 W 50 0,0
10.10.2019 21:00:00 -4,9 -6,1 5 3 14 8 WNW 50 0,0
10.10.2019 20:00:00 -4,1 -5,3 8 4 12 7 W 50 0,0
10.10.2019 19:00:00 -3,2 -4,3 8 4 11 6 WNW 50 0,0
10.10.2019 18:00:00 -1,9 -3,2 0 0 6 3 N 50 0,0
10.10.2019 17:00:00 -0,4 -2,6 7 4 15 8 NE 50 0,0
10.10.2019 16:00:00 0,6 -1,8 8 4 12 7 NE 50 0,0
10.10.2019 15:00:00 1,1 -2,1 7 4 12 6 NNE 46 0,0
10.10.2019 14:00:00 1,7 -1,2 4 2 11 6 WNW 49 0,0
10.10.2019 13:00:00 1,2 -1,2 8 4 13 7 W 50 0,0
10.10.2019 12:00:00 0,9 -1,3 8 5 13 7 W 12 0,0
10.10.2019 11:00:00 0,5 -1,6 8 5 13 7 W 13 0,0
10.10.2019 10:00:00 0,2 -2,3 8 4 11 6 W 14 0,0
10.10.2019 09:00:00 0,4 -2,8 3 2 11 6 NW 32 0,0
10.10.2019 08:00:00 -0,1 -3,0 9 5 13 7 W 50 0,0
10.10.2019 07:00:00 -0,4 -3,1 6 3 12 7 W 50 0,0
10.10.2019 06:00:00 -0,3 -3,2 6 4 12 6 W 50 0,0
10.10.2019 05:00:00 -0,4 -3,1 9 5 18 10 W 50 0,0
10.10.2019 04:00:00 -0,2 -2,7 9 5 16 9 WNW 50 0,0
10.10.2019 03:00:00 -0,6 -3,0 7 4 12 7 WNW 50 0,0
10.10.2019 02:00:00 -0,8 -3,3 4 2 11 6 WSW 50 0,0
10.10.2019 01:00:00 -0,4 -2,9 6 3 11 6 WNW 50 0,0
10.10.2019 00:00:00 0,0 -2,9 8 5 15 8 W 50 0,0
09.10.2019 23:00:00 0,5 -2,7 9 5 13 7 W 50 0,0
09.10.2019 22:00:00 0,6 -2,6 10 5 16 8 W 50 0,0
09.10.2019 21:00:00 0,6 -3,0 8 4 18 10 WNW 50 0,0
09.10.2019 20:00:00 0,9 -2,9 13 7 19 11 WNW 50 0,0
09.10.2019 19:00:00 1,0 -2,6 8 5 14 7 W 50 0,0
09.10.2019 18:00:00 1,3 -2,6 5 3 13 7 NW 50 0,0
09.10.2019 17:00:00 1,4 -2,0 7 4 19 10 W 50 0,0
09.10.2019 16:00:00 2,0 -2,7 15 8 26 14 NNW 50 0,0
09.10.2019 15:00:00 1,9 -2,1 7 4 13 7 NNW 50 0,0
09.10.2019 14:00:00 1,3 -1,6 6 4 14 8 NW 50 0,0
09.10.2019 13:00:00 1,3 -1,8 11 6 22 12 N 50 0,0
09.10.2019 12:00:00 1,2 -1,9 11 6 21 11 NNE 50 0,0
09.10.2019 11:00:00 1,2 -1,9 13 7 18 10 NNE 40 0,0
09.10.2019 10:00:00 0,8 -2,1 7 4 18 10 NNW 50 0,0
09.10.2019 09:00:00 0,5 -2,4 7 4 21 11 N 50 0,0
09.10.2019 08:00:00 0,3 -2,6 6 4 13 7 N 50 0,0
09.10.2019 07:00:00 -0,1 -2,8 5 3 14 8 N 50 0,0
09.10.2019 06:00:00 -0,3 -3,0 5 3 23 12 N 50 0,0
09.10.2019 05:00:00 -0,6 -3,0 11 6 22 12 NNE 50 0,0
09.10.2019 04:00:00 -0,7 -3,1 5 3 20 11 N 48 0,0
09.10.2019 03:00:00 -0,8 -3,5 5 3 19 10 N 50 0,0
09.10.2019 02:00:00 -0,8 -3,7 9 5 16 9 NE 50 0,0
09.10.2019 01:00:00 -0,7 -3,2 7 4 11 6 NE 50 0,0
09.10.2019 00:00:00 -0,9 -2,3 3 1 12 7 NNE 8 0,0
08.10.2019 23:00:00 -1,0 -3,2 4 2 12 7 WNW 50 0,0
08.10.2019 22:00:00 -1,0 -3,5 3 1 13 7 WSW 50 0,0
08.10.2019 21:00:00 -1,2 -3,6 0 0 11 6 N 50 0,0
08.10.2019 20:00:00 -0,9 -3,1 4 2 20 11 E 50 0,0
08.10.2019 19:00:00 -0,8 -3,3 12 7 19 11 E 44 0,0
08.10.2019 18:00:00 -0,6 -3,0 5 3 9 5 SE 50 0,0
08.10.2019 17:00:00 -0,4 -3,3 6 3 24 13 ESE 50 0,0
08.10.2019 16:00:00 -0,4 -2,9 12 7 21 12 E 50 0,0
08.10.2019 15:00:00 0,3 -2,4 13 7 27 15 E 50 0,0
08.10.2019 14:00:00 0,1 -2,0 14 8 26 14 E 16 0,0

tt = temperature
td = dewpoint
ff = wind speed
fx = gusts
dd = wind direction
vv = visibility
rr = precipitation

Next stations